Time;durP1;ratioP1;P1;durP2;ratioP2;P2;SDS_P1;SDS_P2;PMS_P1;PMS_P2;Temp;Humidity;BMP_temperature;BMP_pressure;BME280_temperature;BME280_humidity;BME280_pressure;Samples;Min_cycle;Max_cycle;Signal;HPM_P1;HPM_P2
2021/10/28 00:13:25;;;;;;;;;;;20.70;61.10;;;;;;5071754;28;1039;-69
2021/10/28 00:15:57;;;;;;;;;;;20.70;61.10;;;;;;5071043;28;1980;-69
2021/10/28 00:18:43;;;;;;;;;;;20.70;61.20;;;;;;5071710;28;1328;-68
2021/10/28 00:21:08;;;;;;;;;;;20.70;61.20;;;;;;5071459;28;1284;-69
2021/10/28 00:23:40;;;;;;;;;;;20.70;61.20;;;;;;5071568;28;1379;-69
2021/10/28 00:26:05;;;;;;;;;;;20.70;61.20;;;;;;5070622;28;1119;-69
2021/10/28 00:28:31;;;;;;;;;;;20.70;61.40;;;;;;5053576;28;1283;-69
2021/10/28 00:30:56;;;;;;;;;;;20.70;61.30;;;;;;5071089;28;1268;-69
2021/10/28 00:33:22;;;;;;;;;;;20.70;61.30;;;;;;5071462;28;1056;-69
2021/10/28 00:35:47;;;;;;;;;;;20.70;61.30;;;;;;5070798;28;1898;-69
2021/10/28 00:38:12;;;;;;;;;;;20.70;61.20;;;;;;5071508;28;1304;-69
2021/10/28 00:40:38;;;;;;;;;;;20.70;61.30;;;;;;5070755;28;1063;-69
2021/10/28 00:43:03;;;;;;;;;;;20.70;61.30;;;;;;5071561;28;1089;-69
2021/10/28 00:45:30;;;;;;;;;;;20.70;61.30;;;;;;5070611;28;1055;-69
2021/10/28 00:47:55;;;;;;;;;;;20.70;61.40;;;;;;5071406;28;1291;-69
2021/10/28 00:50:21;;;;;;;;;;;20.70;61.40;;;;;;5071253;28;1388;-70
2021/10/28 00:52:46;;;;;;;;;;;20.70;61.40;;;;;;5071521;28;1273;-69
2021/10/28 00:55:12;;;;;;;;;;;20.70;61.40;;;;;;5070431;28;1087;-69
2021/10/28 00:57:38;;;;;;;;;;;20.70;61.40;;;;;;5054982;28;1906;-69
2021/10/28 01:00:04;;;;;;;;;;;20.70;61.40;;;;;;5075996;28;1067;-69
2021/10/28 01:02:29;;;;;;;;;;;20.70;61.40;;;;;;5075259;28;1374;-69
2021/10/28 01:04:55;;;;;;;;;;;20.70;61.40;;;;;;5056476;28;1091;-69
2021/10/28 01:07:20;;;;;;;;;;;20.70;61.50;;;;;;5075100;28;1354;-68
2021/10/28 01:09:46;;;;;;;;;;;20.60;61.40;;;;;;5061696;28;1056;-69
2021/10/28 01:12:11;;;;;;;;;;;20.60;61.40;;;;;;5074213;28;1039;-69
2021/10/28 01:14:40;;;;;;;;;;;20.70;61.50;;;;;;5074140;28;1226;-68
2021/10/28 01:17:06;;;;;;;;;;;20.70;61.50;;;;;;5074838;28;1965;-69
2021/10/28 01:19:31;;;;;;;;;;;20.70;61.50;;;;;;5074829;28;1421;-69
2021/10/28 01:21:56;;;;;;;;;;;20.60;61.50;;;;;;5071458;28;1249;-68
2021/10/28 01:24:22;;;;;;;;;;;20.70;61.60;;;;;;5068598;28;1239;-69
2021/10/28 01:26:47;;;;;;;;;;;20.70;61.50;;;;;;5063355;28;1242;-69
2021/10/28 01:29:13;;;;;;;;;;;20.60;61.50;;;;;;5063094;28;1408;-68
2021/10/28 01:31:38;;;;;;;;;;;20.60;61.50;;;;;;5068356;28;1120;-68
2021/10/28 01:34:04;;;;;;;;;;;20.70;61.50;;;;;;5069554;28;1266;-69
2021/10/28 01:36:30;;;;;;;;;;;20.60;61.50;;;;;;5065653;28;1906;-68
2021/10/28 01:38:55;;;;;;;;;;;20.60;61.50;;;;;;5067302;28;1270;-68
2021/10/28 01:41:21;;;;;;;;;;;20.60;61.50;;;;;;5051331;28;1224;-68
2021/10/28 01:43:46;;;;;;;;;;;20.60;61.50;;;;;;5069754;28;1258;-69
2021/10/28 01:46:12;;;;;;;;;;;20.60;61.50;;;;;;5047628;28;1210;-68
2021/10/28 01:48:39;;;;;;;;;;;20.60;61.60;;;;;;5067320;28;1272;-68
2021/10/28 01:51:05;;;;;;;;;;;20.60;61.60;;;;;;5066927;28;1309;-68
2021/10/28 01:53:31;;;;;;;;;;;20.60;61.60;;;;;;5047795;28;1240;-69
2021/10/28 01:55:56;;;;;;;;;;;20.60;61.60;;;;;;5074248;28;1914;-68
2021/10/28 01:58:22;;;;;;;;;;;20.60;61.60;;;;;;5073993;28;1391;-68
2021/10/28 02:00:48;;;;;;;;;;;20.60;61.60;;;;;;5074660;28;1266;-68
2021/10/28 02:03:13;;;;;;;;;;;20.60;61.60;;;;;;5056592;28;1398;-69
2021/10/28 02:05:39;;;;;;;;;;;20.60;62.40;;;;;;5074381;28;1325;-68
2021/10/28 02:08:04;;;;;;;;;;;20.60;61.70;;;;;;5071711;28;1321;-68
2021/10/28 02:10:30;;;;;;;;;;;20.60;61.70;;;;;;5045067;28;1266;-68
2021/10/28 02:12:56;;;;;;;;;;;20.60;61.60;;;;;;5074281;28;1306;-68
2021/10/28 02:15:22;;;;;;;;;;;20.60;61.70;;;;;;5073384;28;1044;-69
2021/10/28 02:17:47;;;;;;;;;;;20.60;61.70;;;;;;5056538;28;1910;-68
2021/10/28 02:20:14;;;;;;;;;;;20.60;61.70;;;;;;5074144;28;1304;-69
2021/10/28 02:22:39;;;;;;;;;;;20.60;61.70;;;;;;5056762;28;1083;-68
2021/10/28 02:25:05;;;;;;;;;;;20.60;61.70;;;;;;5055520;28;1302;-69
2021/10/28 02:27:31;;;;;;;;;;;20.60;61.70;;;;;;5056335;28;1357;-69
2021/10/28 02:29:57;;;;;;;;;;;20.60;61.70;;;;;;5074388;28;1300;-69
2021/10/28 02:32:22;;;;;;;;;;;20.50;61.70;;;;;;5074649;28;1254;-68
2021/10/28 02:34:48;;;;;;;;;;;20.60;61.70;;;;;;5072979;28;1072;-68
2021/10/28 02:37:13;;;;;;;;;;;20.60;61.70;;;;;;5073922;28;1937;-68
2021/10/28 02:39:39;;;;;;;;;;;20.60;61.80;;;;;;5056445;28;1095;-70
2021/10/28 02:42:04;;;;;;;;;;;20.60;61.80;;;;;;5074065;28;1316;-70
2021/10/28 02:44:30;;;;;;;;;;;20.60;61.80;;;;;;5073019;28;1052;-70
2021/10/28 02:46:55;;;;;;;;;;;20.60;61.80;;;;;;5073343;28;1206;-69
2021/10/28 02:49:21;;;;;;;;;;;20.50;61.70;;;;;;5073830;28;1307;-70
2021/10/28 02:51:47;;;;;;;;;;;20.50;61.80;;;;;;5073833;28;1265;-70
2021/10/28 02:54:19;;;;;;;;;;;20.50;61.80;;;;;;5055101;28;1321;-70
2021/10/28 02:56:44;;;;;;;;;;;20.60;61.80;;;;;;5073388;28;1902;-70
2021/10/28 02:59:10;;;;;;;;;;;20.50;61.80;;;;;;5073179;28;1292;-69
2021/10/28 03:01:45;;;;;;;;;;;20.50;61.80;;;;;;5055738;28;1323;-70
2021/10/28 03:04:11;;;;;;;;;;;20.50;61.80;;;;;;5073377;28;1304;-70
2021/10/28 03:06:39;;;;;;;;;;;20.50;61.80;;;;;;5073075;28;1093;-69
2021/10/28 03:09:04;;;;;;;;;;;20.50;61.80;;;;;;5062789;28;1223;-69
2021/10/28 03:11:30;;;;;;;;;;;20.50;61.90;;;;;;5070508;28;1463;-69
2021/10/28 03:13:57;;;;;;;;;;;20.50;61.80;;;;;;5073059;28;1293;-68
2021/10/28 03:27:02;;;;;;;;;;;20.50;61.90;;;;;;5072767;28;1291;-68
2021/10/28 03:29:28;;;;;;;;;;;20.50;61.90;;;;;;5072985;28;1318;-68
2021/10/28 03:31:53;;;;;;;;;;;20.50;61.90;;;;;;5072998;28;1297;-68
2021/10/28 03:34:19;;;;;;;;;;;20.50;61.90;;;;;;5071722;28;1326;-68
2021/10/28 03:36:50;;;;;;;;;;;20.50;61.90;;;;;;5072698;28;1902;-68
2021/10/28 03:39:31;;;;;;;;;;;20.50;62.00;;;;;;5073206;28;1347;-68
2021/10/28 03:42:26;;;;;;;;;;;20.50;61.90;;;;;;5072754;28;1307;-68
2021/10/28 03:55:24;;;;;;;;;;;20.50;61.90;;;;;;5071447;28;1293;-69
2021/10/28 03:58:11;;;;;;;;;;;20.50;61.80;;;;;;5072081;28;1965;-69
2021/10/28 04:06:36;;;;;;;;;;;20.60;61.70;;;;;;5071970;28;1382;-69
2021/10/28 04:16:28;;;;;;;;;;;20.60;61.60;;;;;;5062413;28;1260;-69
2021/10/28 04:31:15;;;;;;;;;;;20.90;60.70;;;;;;5071418;28;1294;-69
2021/10/28 04:33:42;;;;;;;;;;;20.90;60.50;;;;;;5054106;28;1395;-69
2021/10/28 04:36:10;;;;;;;;;;;21.00;60.40;;;;;;5071458;28;1951;-70
2021/10/28 04:38:36;;;;;;;;;;;21.00;60.40;;;;;;5054003;28;1491;-70
2021/10/28 04:41:01;;;;;;;;;;;21.00;60.20;;;;;;5071679;28;1401;-68
2021/10/28 04:43:27;;;;;;;;;;;21.00;60.20;;;;;;5072266;28;1386;-69
2021/10/28 04:45:52;;;;;;;;;;;21.10;60.10;;;;;;5071166;28;1401;-71
2021/10/28 04:48:18;;;;;;;;;;;21.10;60.00;;;;;;5071898;28;1267;-70
2021/10/28 04:50:43;;;;;;;;;;;21.10;60.20;;;;;;5071909;28;1333;-70
2021/10/28 04:53:08;;;;;;;;;;;21.10;60.10;;;;;;5072372;28;1408;-70
2021/10/28 04:55:34;;;;;;;;;;;21.10;60.00;;;;;;5067422;28;1637;-70
2021/10/28 04:57:59;;;;;;;;;;;21.20;60.00;;;;;;5060116;28;1974;-73
2021/10/28 05:00:25;;;;;;;;;;;21.20;59.90;;;;;;5070349;28;1131;-72
2021/10/28 05:02:50;;;;;;;;;;;21.20;59.90;;;;;;5052778;28;1289;-71
2021/10/28 05:05:16;;;;;;;;;;;21.10;59.80;;;;;;5070211;28;1299;-72
2021/10/28 05:07:41;;;;;;;;;;;21.20;59.80;;;;;;5070851;28;1294;-71
2021/10/28 05:10:07;;;;;;;;;;;21.20;59.80;;;;;;5070570;28;1173;-71
2021/10/28 05:12:32;;;;;;;;;;;21.20;59.80;;;;;;5070129;28;1351;-72
2021/10/28 05:14:58;;;;;;;;;;;21.20;60.40;;;;;;5052200;28;1238;-71
2021/10/28 05:17:23;;;;;;;;;;;21.20;59.70;;;;;;5070520;28;1909;-70
2021/10/28 05:19:49;;;;;;;;;;;21.20;59.70;;;;;;5052381;28;1356;-70
2021/10/28 05:22:14;;;;;;;;;;;21.20;59.70;;;;;;5070880;28;1314;-70
2021/10/28 05:24:39;;;;;;;;;;;21.20;59.60;;;;;;5070017;28;1632;-69
2021/10/28 05:27:05;;;;;;;;;;;21.20;59.60;;;;;;5068527;28;1284;-69
2021/10/28 05:29:30;;;;;;;;;;;21.30;59.60;;;;;;5070527;28;1354;-70
2021/10/28 05:31:56;;;;;;;;;;;21.30;59.60;;;;;;5070959;28;1312;-70
2021/10/28 05:34:21;;;;;;;;;;;21.20;59.50;;;;;;5051675;28;1302;-70
2021/10/28 05:36:47;;;;;;;;;;;21.30;59.50;;;;;;5052341;28;1963;-70
2021/10/28 05:39:12;;;;;;;;;;;21.30;59.50;;;;;;5070182;28;1284;-70
2021/10/28 05:41:38;;;;;;;;;;;21.30;59.50;;;;;;5027651;28;1227;-68
2021/10/28 05:44:04;;;;;;;;;;;21.30;59.50;;;;;;5052009;28;1311;-67
2021/10/28 05:46:29;;;;;;;;;;;21.30;59.50;;;;;;5073591;28;1281;-68
2021/10/28 05:48:55;;;;;;;;;;;21.30;59.50;;;;;;5073530;28;1374;-70
2021/10/28 05:51:20;;;;;;;;;;;21.30;59.50;;;;;;5061757;28;1261;-70
2021/10/28 05:53:47;;;;;;;;;;;21.30;59.40;;;;;;5057059;28;1075;-72
2021/10/28 05:56:13;;;;;;;;;;;21.30;59.40;;;;;;5067543;28;2088;-71
2021/10/28 05:58:38;;;;;;;;;;;21.30;59.40;;;;;;5028858;28;2225;-70
2021/10/28 06:01:04;;;;;;;;;;;21.30;59.40;;;;;;5053936;28;2194;-70
2021/10/28 06:03:30;;;;;;;;;;;21.30;59.40;;;;;;5073202;28;1374;-70
2021/10/28 06:05:56;;;;;;;;;;;21.30;59.40;;;;;;5071993;28;1392;-71
2021/10/28 06:08:22;;;;;;;;;;;21.30;59.40;;;;;;5073024;28;1306;-71
2021/10/28 06:10:47;;;;;;;;;;;21.40;59.40;;;;;;5057418;28;885;-70
2021/10/28 06:13:13;;;;;;;;;;;21.40;59.40;;;;;;5051903;28;881;-71
2021/10/28 06:15:38;;;;;;;;;;;21.30;59.40;;;;;;5034813;28;1030;-69
2021/10/28 06:20:42;;;;;;;;;;;21.40;59.40;;;;;;5052850;28;907;-70
2021/10/28 06:23:07;;;;;;;;;;;21.40;59.40;;;;;;5053361;28;821;-70
2021/10/28 06:25:33;;;;;;;;;;;21.40;59.30;;;;;;5051859;28;888;-69
2021/10/28 06:27:59;;;;;;;;;;;21.40;59.40;;;;;;5053324;28;1380;-69
2021/10/28 06:30:24;;;;;;;;;;;21.30;59.30;;;;;;5035822;28;847;-69
2021/10/28 06:32:54;;;;;;;;;;;21.30;59.30;;;;;;5053021;28;874;-69
2021/10/28 06:35:20;;;;;;;;;;;21.40;59.30;;;;;;5051997;28;856;-69
2021/10/28 06:37:47;;;;;;;;;;;21.40;59.30;;;;;;5035389;28;1894;-69
2021/10/28 06:40:13;;;;;;;;;;;21.40;59.20;;;;;;5053152;28;876;-69
2021/10/28 06:42:39;;;;;;;;;;;21.50;59.10;;;;;;5035621;28;719;-69
2021/10/28 06:45:04;;;;;;;;;;;21.60;59.00;;;;;;5051823;28;798;-69
2021/10/28 06:47:29;;;;;;;;;;;21.80;58.90;;;;;;5053130;28;1334;-69
2021/10/28 08:22:35;;;;;;;;;;;21.20;57.50;;;;;;5089462;27;1441;-78
2021/10/28 08:30:24;;;;;;;;;;;21.40;58.10;;;;;;5098658;28;1910;-69
2021/10/28 08:32:50;;;;;;;;;;;21.50;58.00;;;;;;5102275;28;1946;-69
2021/10/28 08:35:15;;;;;;;;;;;21.60;58.00;;;;;;5099669;28;1288;-70
2021/10/28 08:37:45;;;;;;;;;;;21.60;57.80;;;;;;5107076;28;1145;-69
2021/10/28 08:40:14;;;;;;;;;;;21.70;57.60;;;;;;5108038;28;1290;-69
2021/10/28 08:42:40;;;;;;;;;;;21.70;57.50;;;;;;5085636;28;1207;-69
2021/10/28 08:45:06;;;;;;;;;;;21.70;57.00;;;;;;5086982;28;1305;-69
2021/10/28 08:47:31;;;;;;;;;;;21.80;56.40;;;;;;5109320;28;1275;-69
2021/10/28 08:50:01;;;;;;;;;;;21.80;56.10;;;;;;5096529;28;1902;-70
2021/10/28 09:25:24;;;;;;;;;;;21.90;54.00;;;;;;5094295;28;1300;-73
2021/10/28 09:28:00;;;;;;;;;;;21.80;53.90;;;;;;5093599;28;1341;-72
2021/10/28 09:30:37;;;;;;;;;;;21.80;54.10;;;;;;5057789;28;1961;-72
2021/10/28 09:33:07;;;;;;;;;;;21.80;54.40;;;;;;5075681;28;1286;-72
2021/10/28 09:36:11;;;;;;;;;;;21.80;54.50;;;;;;5076558;28;1290;-72
2021/10/28 09:43:47;;;;;;;;;;;21.70;54.80;;;;;;5094260;28;1321;-71
2021/10/28 09:51:19;;;;;;;;;;;21.60;54.80;;;;;;5093753;28;1915;-72
2021/10/28 09:54:10;;;;;;;;;;;21.60;55.00;;;;;;5094015;28;1300;-71
2021/10/28 09:59:26;;;;;;;;;;;21.50;54.90;;;;;;5079188;28;1261;-71
2021/10/28 10:01:57;;;;;;;;;;;21.60;55.10;;;;;;5075667;28;1393;-72
2021/10/28 10:04:25;;;;;;;;;;;21.50;55.20;;;;;;5076287;28;952;-71
2021/10/28 10:06:52;;;;;;;;;;;21.50;55.10;;;;;;5076123;28;1408;-71
2021/10/28 10:09:17;;;;;;;;;;;21.50;55.20;;;;;;5076361;28;1308;-71
2021/10/28 10:11:42;;;;;;;;;;;21.50;55.30;;;;;;5075326;28;1898;-70
2021/10/28 10:14:08;;;;;;;;;;;21.40;55.20;;;;;;5075029;28;1340;-72
2021/10/28 10:16:33;;;;;;;;;;;21.50;55.00;;;;;;5093877;28;1325;-71
2021/10/28 10:18:59;;;;;;;;;;;21.40;54.90;;;;;;5076048;28;1059;-71
2021/10/28 11:26:13;;;;;;;;;;;21.00;54.30;;;;;;5072845;28;1354;-69
2021/10/28 11:29:05;;;;;;;;;;;21.00;54.20;;;;;;5072715;28;1286;-69
2021/10/28 11:31:52;;;;;;;;;;;20.90;54.40;;;;;;5071609;28;1918;-69
2021/10/28 12:14:10;;;;;;;;;;;20.90;54.80;;;;;;5088062;28;1001;-69
2021/10/28 12:21:37;;;;;;;;;;;20.80;55.20;;;;;;5089461;28;1147;-69
2021/10/28 12:25:04;;;;;;;;;;;20.80;55.30;;;;;;5076554;28;1337;-69
2021/10/28 12:43:38;;;;;;;;;;;20.70;54.20;;;;;;5091248;28;1327;-69
2021/10/28 12:46:11;;;;;;;;;;;20.70;53.60;;;;;;5092297;28;1387;-69
2021/10/28 12:49:02;;;;;;;;;;;20.70;53.00;;;;;;5074101;28;1271;-68
2021/10/28 12:51:40;;;;;;;;;;;20.60;52.90;;;;;;5076989;28;1906;-68
2021/10/28 13:02:07;;;;;;;;;;;20.70;52.70;;;;;;5088905;28;1275;-69
2021/10/28 13:38:30;;;;;;;;;;;20.70;53.80;;;;;;5095232;28;1242;-70
2021/10/28 13:58:09;;;;;;;;;;;20.70;54.50;;;;;;5077587;28;1321;-70
2021/10/28 14:00:35;;;;;;;;;;;20.70;54.40;;;;;;5083483;28;1237;-69
2021/10/28 14:27:57;;;;;;;;;;;20.60;55.10;;;;;;5073601;28;1327;-69
2021/10/28 15:29:08;;;;;;;;;;;20.90;56.20;;;;;;5077585;28;1253;-69
2021/10/28 15:32:12;;;;;;;;;;;20.90;56.10;;;;;;5091908;28;1913;-70
2021/10/28 15:40:13;;;;;;;;;;;21.00;56.00;;;;;;5072366;28;1937;-68
2021/10/28 15:42:54;;;;;;;;;;;21.10;56.00;;;;;;5074438;28;2015;-68
2021/10/28 16:01:42;;;;;;;;;;;21.20;55.90;;;;;;5074008;28;1128;-68
2021/10/28 16:23:11;;;;;;;;;;;21.20;55.90;;;;;;5072347;28;1277;-70
2021/10/28 16:25:37;;;;;;;;;;;21.20;55.90;;;;;;5069696;28;1362;-70
2021/10/28 16:28:02;;;;;;;;;;;21.20;55.90;;;;;;5070781;28;1270;-70
2021/10/28 16:30:28;;;;;;;;;;;21.20;55.90;;;;;;5063735;28;1909;-70
2021/10/28 16:32:53;;;;;;;;;;;21.20;55.90;;;;;;5088347;28;1251;-70
2021/10/28 16:35:19;;;;;;;;;;;21.20;56.00;;;;;;5075797;28;1361;-70
2021/10/28 16:37:45;;;;;;;;;;;21.20;56.00;;;;;;5075780;28;1375;-69
2021/10/28 16:40:10;;;;;;;;;;;21.20;56.00;;;;;;5067459;28;1286;-70
2021/10/28 16:42:36;;;;;;;;;;;21.20;56.00;;;;;;5089257;28;1378;-72
2021/10/28 16:45:02;;;;;;;;;;;21.20;56.00;;;;;;5081971;28;1276;-70
2021/10/28 16:47:29;;;;;;;;;;;21.20;56.10;;;;;;5077286;28;1304;-69
2021/10/28 16:49:55;;;;;;;;;;;21.20;56.10;;;;;;5077206;28;1902;-69
2021/10/28 16:52:20;;;;;;;;;;;21.20;56.10;;;;;;5077635;28;1270;-69
2021/10/28 16:54:46;;;;;;;;;;;21.20;56.00;;;;;;5093210;28;1235;-69
2021/10/28 16:57:11;;;;;;;;;;;21.30;56.10;;;;;;5085842;28;1366;-69
2021/10/28 16:59:37;;;;;;;;;;;21.30;56.10;;;;;;5091098;28;1223;-68
2021/10/28 17:02:02;;;;;;;;;;;21.30;56.10;;;;;;5092181;28;1214;-68
2021/10/28 17:04:28;;;;;;;;;;;21.30;56.10;;;;;;5092126;28;1222;-68
2021/10/28 17:06:53;;;;;;;;;;;21.30;56.10;;;;;;5072874;28;1301;-69
2021/10/28 17:09:19;;;;;;;;;;;21.30;56.00;;;;;;5054020;28;1299;-69
2021/10/28 17:11:44;;;;;;;;;;;21.30;56.10;;;;;;5092919;28;1910;-68
2021/10/28 17:14:10;;;;;;;;;;;21.30;56.10;;;;;;5094251;28;1303;-70
2021/10/28 17:16:36;;;;;;;;;;;21.30;56.10;;;;;;5094946;28;1274;-69
2021/10/28 17:19:02;;;;;;;;;;;21.30;56.10;;;;;;5095199;28;1334;-68
2021/10/28 17:21:27;;;;;;;;;;;21.30;56.00;;;;;;5071912;28;1293;-68
2021/10/28 17:24:03;;;;;;;;;;;21.30;56.10;;;;;;5066502;28;1374;-68
2021/10/28 17:26:29;;;;;;;;;;;21.30;56.00;;;;;;5094306;28;1363;-67
2021/10/28 17:28:59;;;;;;;;;;;21.30;56.10;;;;;;5076024;28;1544;-67
2021/10/28 17:31:25;;;;;;;;;;;21.40;56.10;;;;;;5073260;28;1914;-69
2021/10/28 17:33:50;;;;;;;;;;;21.40;56.10;;;;;;5068379;28;1811;-69
2021/10/28 17:36:16;;;;;;;;;;;21.40;56.10;;;;;;5091209;28;1503;-69
2021/10/28 17:38:41;;;;;;;;;;;21.40;56.10;;;;;;5094957;28;1134;-69
2021/10/28 17:41:07;;;;;;;;;;;21.40;56.10;;;;;;5086210;28;1385;-68
2021/10/28 17:43:34;;;;;;;;;;;21.40;56.10;;;;;;5092693;28;1413;-68
2021/10/28 17:46:00;;;;;;;;;;;21.40;56.10;;;;;;5094037;28;1263;-68
2021/10/28 17:48:26;;;;;;;;;;;21.40;56.20;;;;;;5083185;28;1516;-68
2021/10/28 17:50:52;;;;;;;;;;;21.40;56.20;;;;;;5081799;28;1910;-69
2021/10/28 17:53:18;;;;;;;;;;;21.40;56.10;;;;;;5081759;28;1276;-69
2021/10/28 17:55:43;;;;;;;;;;;21.40;56.20;;;;;;5087202;28;1370;-69
2021/10/28 17:58:09;;;;;;;;;;;21.40;56.10;;;;;;5088881;28;1093;-68
2021/10/28 18:00:34;;;;;;;;;;;21.40;56.20;;;;;;5064672;28;1122;-70
2021/10/28 18:03:00;;;;;;;;;;;21.40;56.20;;;;;;5064595;28;1331;-70
2021/10/28 18:05:25;;;;;;;;;;;21.40;56.20;;;;;;5087865;28;1416;-69
2021/10/28 18:07:51;;;;;;;;;;;21.40;56.20;;;;;;5077130;28;1277;-70
2021/10/28 18:10:16;;;;;;;;;;;21.40;56.20;;;;;;5089471;28;1906;-70
2021/10/28 18:12:42;;;;;;;;;;;21.40;56.20;;;;;;5087629;28;1279;-69
2021/10/28 18:15:08;;;;;;;;;;;21.40;56.20;;;;;;5070903;28;1395;-69
2021/10/28 18:17:34;;;;;;;;;;;21.40;56.20;;;;;;5069163;28;1350;-69
2021/10/28 18:20:00;;;;;;;;;;;21.40;56.30;;;;;;5064579;28;1374;-69
2021/10/28 18:22:25;;;;;;;;;;;21.40;56.30;;;;;;5093249;28;1289;-69
2021/10/28 18:24:51;;;;;;;;;;;21.40;56.30;;;;;;5079872;28;1271;-70
2021/10/28 18:27:16;;;;;;;;;;;21.40;56.30;;;;;;5093714;28;1426;-70
2021/10/28 18:29:42;;;;;;;;;;;21.40;56.30;;;;;;5080478;28;1383;-70
2021/10/28 18:32:07;;;;;;;;;;;21.40;56.30;;;;;;5081271;28;1967;-71
2021/10/28 18:34:36;;;;;;;;;;;21.40;56.30;;;;;;5070943;28;1147;-70
2021/10/28 18:37:01;;;;;;;;;;;21.40;56.30;;;;;;5075644;28;1331;-71
2021/10/28 18:39:27;;;;;;;;;;;21.40;56.30;;;;;;5090518;28;1352;-70
2021/10/28 18:41:53;;;;;;;;;;;21.40;56.40;;;;;;5093467;28;1346;-70
2021/10/28 18:44:19;;;;;;;;;;;21.40;56.40;;;;;;5076309;28;1115;-70
2021/10/28 18:46:45;;;;;;;;;;;21.40;56.40;;;;;;5084776;28;1352;-70
2021/10/28 18:49:11;;;;;;;;;;;21.40;56.40;;;;;;5091022;28;1278;-70
2021/10/28 18:51:38;;;;;;;;;;;21.40;56.40;;;;;;5092397;28;1902;-70
2021/10/28 18:54:04;;;;;;;;;;;21.40;56.40;;;;;;5072575;28;1745;-70
2021/10/28 18:56:30;;;;;;;;;;;21.40;56.40;;;;;;5063454;28;1313;-70
2021/10/28 18:58:55;;;;;;;;;;;21.40;56.40;;;;;;5090980;28;1091;-71
2021/10/28 19:01:21;;;;;;;;;;;21.40;56.40;;;;;;5092146;28;1073;-69
2021/10/28 19:03:46;;;;;;;;;;;21.40;56.50;;;;;;5092572;28;1360;-70
2021/10/28 19:06:12;;;;;;;;;;;21.40;57.00;;;;;;5093118;28;1277;-70
2021/10/28 19:08:41;;;;;;;;;;;21.40;56.40;;;;;;5075143;28;1423;-71
2021/10/28 19:11:07;;;;;;;;;;;21.40;56.50;;;;;;5093142;28;1957;-70
2021/10/28 19:13:32;;;;;;;;;;;21.40;56.50;;;;;;5075077;28;1322;-70
2021/10/28 19:15:58;;;;;;;;;;;21.40;56.50;;;;;;5074473;28;1283;-70
2021/10/28 19:18:24;;;;;;;;;;;21.40;56.50;;;;;;5073793;28;1079;-70
2021/10/28 19:20:50;;;;;;;;;;;21.40;56.50;;;;;;5065301;28;1426;-71
2021/10/28 19:23:15;;;;;;;;;;;21.40;57.10;;;;;;5089917;28;1385;-70
2021/10/28 19:25:41;;;;;;;;;;;21.40;56.50;;;;;;5092503;28;1374;-70
2021/10/28 19:28:08;;;;;;;;;;;21.40;56.50;;;;;;5078908;28;1418;-70
2021/10/28 19:30:36;;;;;;;;;;;21.40;56.50;;;;;;5088330;28;1919;-70
2021/10/28 19:33:10;;;;;;;;;;;21.40;56.60;;;;;;5071451;28;1183;-71
2021/10/28 19:35:38;;;;;;;;;;;21.40;56.60;;;;;;5088862;28;1316;-70
2021/10/28 19:41:32;;;;;;;;;;;21.40;56.60;;;;;;5089837;28;1455;-69
2021/10/28 19:46:24;;;;;;;;;;;21.40;56.70;;;;;;5091915;28;1289;-70
2021/10/28 19:48:50;;;;;;;;;;;21.40;56.70;;;;;;5091040;28;1349;-70
2021/10/28 19:51:16;;;;;;;;;;;21.40;56.70;;;;;;5090282;28;1902;-70
2021/10/28 19:53:42;;;;;;;;;;;21.40;56.70;;;;;;5078366;28;1304;-69
2021/10/28 19:56:09;;;;;;;;;;;21.40;56.70;;;;;;5084463;28;1268;-70
2021/10/28 19:58:37;;;;;;;;;;;21.40;56.70;;;;;;5084773;28;1269;-69
2021/10/28 20:01:14;;;;;;;;;;;21.40;56.70;;;;;;5071352;28;1356;-69
2021/10/28 20:04:00;;;;;;;;;;;21.40;56.70;;;;;;5073801;28;1178;-69
2021/10/28 20:06:40;;;;;;;;;;;21.40;56.70;;;;;;5089043;28;1311;-69
2021/10/28 20:22:30;;;;;;;;;;;21.40;56.80;;;;;;5078563;28;1333;-69
2021/10/28 20:24:55;;;;;;;;;;;21.40;56.80;;;;;;5087735;28;1290;-69
2021/10/28 20:27:23;;;;;;;;;;;21.40;56.80;;;;;;5066358;28;1321;-69
2021/10/28 20:29:49;;;;;;;;;;;21.40;56.80;;;;;;5073642;28;1365;-69
2021/10/28 20:32:14;;;;;;;;;;;21.40;56.80;;;;;;5091108;28;1906;-67
2021/10/28 20:37:14;;;;;;;;;;;21.40;56.80;;;;;;5073621;28;1473;-69
2021/10/28 20:39:41;;;;;;;;;;;21.40;56.80;;;;;;5087607;28;2083;-69
2021/10/28 20:42:07;;;;;;;;;;;21.40;56.80;;;;;;5090938;28;1643;-68
2021/10/28 20:44:33;;;;;;;;;;;21.40;56.90;;;;;;5070183;28;1610;-69
2021/10/28 20:46:59;;;;;;;;;;;21.40;56.90;;;;;;5090533;28;1771;-69
2021/10/28 20:49:24;;;;;;;;;;;21.40;56.90;;;;;;5082816;28;1500;-68
2021/10/28 20:51:50;;;;;;;;;;;21.40;56.90;;;;;;5072353;28;1971;-69
2021/10/28 20:54:16;;;;;;;;;;;21.50;56.90;;;;;;5085274;28;1083;-69
2021/10/28 20:56:41;;;;;;;;;;;21.40;56.90;;;;;;5090113;28;1297;-68
2021/10/28 20:59:07;;;;;;;;;;;21.40;56.90;;;;;;5091126;28;1414;-68
2021/10/28 21:01:32;;;;;;;;;;;21.40;56.90;;;;;;5077439;28;1256;-68
2021/10/28 21:03:58;;;;;;;;;;;21.40;56.90;;;;;;5092011;28;1302;-68
2021/10/28 21:06:23;;;;;;;;;;;21.40;56.90;;;;;;5087482;28;1369;-69
2021/10/28 21:08:49;;;;;;;;;;;21.40;56.90;;;;;;5090332;28;1478;-69
2021/10/28 21:11:14;;;;;;;;;;;21.50;57.00;;;;;;5072537;28;1906;-68
2021/10/28 21:13:39;;;;;;;;;;;21.50;57.00;;;;;;5084302;28;1516;-69
2021/10/28 21:16:06;;;;;;;;;;;21.50;57.00;;;;;;5066324;28;1325;-69
2021/10/28 21:18:31;;;;;;;;;;;21.40;57.00;;;;;;5089414;28;1340;-69
2021/10/28 21:20:57;;;;;;;;;;;21.40;57.00;;;;;;5094682;28;1343;-68
2021/10/28 21:23:22;;;;;;;;;;;21.40;57.00;;;;;;5069783;28;1271;-69
2021/10/28 21:25:48;;;;;;;;;;;21.40;57.00;;;;;;5087716;28;1290;-69
2021/10/28 21:28:14;;;;;;;;;;;21.40;57.00;;;;;;5082054;28;1326;-68
2021/10/28 21:30:43;;;;;;;;;;;21.40;57.10;;;;;;5076925;28;1910;-69
2021/10/28 21:33:09;;;;;;;;;;;21.40;57.10;;;;;;5063045;28;1312;-69
2021/10/28 21:35:34;;;;;;;;;;;21.40;57.10;;;;;;5076859;28;1364;-68
2021/10/28 21:38:00;;;;;;;;;;;21.40;57.20;;;;;;5093794;28;1427;-70
2021/10/28 21:40:25;;;;;;;;;;;21.40;57.30;;;;;;5087160;28;2144;-70
2021/10/28 21:42:51;;;;;;;;;;;21.40;57.30;;;;;;5087993;28;1294;-70
2021/10/28 21:45:17;;;;;;;;;;;21.30;57.30;;;;;;5072845;28;1290;-70
2021/10/28 21:47:45;;;;;;;;;;;21.30;57.30;;;;;;5074624;28;1366;-70
2021/10/28 21:50:11;;;;;;;;;;;21.30;57.40;;;;;;5074828;28;1878;-70
2021/10/28 21:52:38;;;;;;;;;;;21.30;57.40;;;;;;5073418;28;1300;-70
2021/10/28 21:57:53;;;;;;;;;;;21.30;57.50;;;;;;5094702;28;1047;-69
2021/10/28 22:00:33;;;;;;;;;;;21.30;57.50;;;;;;5077662;28;1329;-70
2021/10/28 22:05:57;;;;;;;;;;;21.20;57.60;;;;;;5094457;28;1323;-70
2021/10/28 22:24:52;;;;;;;;;;;21.20;57.90;;;;;;5073918;28;1352;-69
2021/10/28 22:27:18;;;;;;;;;;;21.10;57.90;;;;;;5067660;28;1264;-70
2021/10/28 22:29:43;;;;;;;;;;;21.10;57.90;;;;;;5075961;28;1390;-70
2021/10/28 22:32:09;;;;;;;;;;;21.10;57.90;;;;;;5091816;28;1906;-70
2021/10/28 22:34:36;;;;;;;;;;;21.10;58.00;;;;;;5094009;28;1306;-70
2021/10/28 22:37:09;;;;;;;;;;;21.10;58.00;;;;;;5093699;28;1192;-69
2021/10/28 22:39:56;;;;;;;;;;;21.10;58.00;;;;;;5094204;28;1365;-69
2021/10/28 22:42:22;;;;;;;;;;;21.10;58.10;;;;;;5093033;28;1278;-70
2021/10/28 22:44:48;;;;;;;;;;;21.10;58.20;;;;;;5093379;28;1082;-70
2021/10/28 22:47:13;;;;;;;;;;;21.10;58.20;;;;;;5075216;28;1368;-70
2021/10/28 22:49:39;;;;;;;;;;;21.00;58.20;;;;;;5093688;28;1061;-69
2021/10/28 22:52:13;;;;;;;;;;;21.00;58.20;;;;;;5092420;28;1890;-69
2021/10/28 22:54:38;;;;;;;;;;;21.00;58.20;;;;;;5093712;28;1124;-69
2021/10/28 22:57:06;;;;;;;;;;;21.00;58.30;;;;;;5092892;28;1301;-70
2021/10/28 22:59:32;;;;;;;;;;;21.00;58.30;;;;;;5093445;28;1419;-69
2021/10/28 23:10:51;;;;;;;;;;;21.00;58.40;;;;;;5054824;28;1949;-69
2021/10/28 23:14:08;;;;;;;;;;;21.00;58.50;;;;;;5092752;28;1390;-69
2021/10/28 23:21:30;;;;;;;;;;;20.90;58.50;;;;;;5073099;28;1374;-70
2021/10/28 23:23:56;;;;;;;;;;;20.90;58.50;;;;;;5072570;28;1317;-70
2021/10/28 23:26:21;;;;;;;;;;;20.90;58.60;;;;;;5072070;28;1372;-69
2021/10/28 23:28:47;;;;;;;;;;;20.90;58.60;;;;;;5072527;28;1328;-70
2021/10/28 23:31:12;;;;;;;;;;;20.90;58.60;;;;;;5071744;28;1909;-69
2021/10/28 23:33:38;;;;;;;;;;;20.90;58.60;;;;;;5072446;28;1277;-69
2021/10/28 23:36:04;;;;;;;;;;;20.90;58.60;;;;;;5071578;28;1613;-69
2021/10/28 23:38:29;;;;;;;;;;;20.90;58.70;;;;;;5074840;28;1361;-70
2021/10/28 23:40:55;;;;;;;;;;;20.90;59.30;;;;;;5091247;28;1329;-69
2021/10/28 23:43:20;;;;;;;;;;;20.90;58.80;;;;;;5092770;28;1355;-69
2021/10/28 23:45:45;;;;;;;;;;;20.80;58.70;;;;;;5092462;28;1281;-69
2021/10/28 23:48:11;;;;;;;;;;;20.80;58.70;;;;;;5092667;28;1404;-70
2021/10/28 23:50:36;;;;;;;;;;;20.80;58.80;;;;;;5091805;28;1902;-69
2021/10/28 23:53:02;;;;;;;;;;;20.80;58.80;;;;;;5091304;28;1297;-69
2021/10/28 23:55:28;;;;;;;;;;;20.80;58.80;;;;;;5092128;28;1356;-70
2021/10/28 23:57:53;;;;;;;;;;;20.80;58.80;;;;;;5092908;28;1289;-69
